sensor_id;sensor_type;location;lat;lon;timestamp;P1;durP1;ratioP1;P2;durP2;ratioP2
12958;SDS011;6544;51.666;6.634;2023-04-25T00:02:24;12.48;;;5.70;;
12958;SDS011;6544;51.666;6.634;2023-04-25T00:04:51;14.17;;;6.27;;
12958;SDS011;6544;51.666;6.634;2023-04-25T00:07:18;14.67;;;5.73;;
12958;SDS011;6544;51.666;6.634;2023-04-25T00:09:45;14.97;;;5.90;;
12958;SDS011;6544;51.666;6.634;2023-04-25T00:12:12;12.87;;;5.73;;
12958;SDS011;6544;51.666;6.634;2023-04-25T00:14:39;12.95;;;5.90;;
12958;SDS011;6544;51.666;6.634;2023-04-25T00:17:07;14.23;;;6.30;;
12958;SDS011;6544;51.666;6.634;2023-04-25T00:19:34;12.25;;;5.90;;
12958;SDS011;6544;51.666;6.634;2023-04-25T00:22:02;11.23;;;5.78;;
12958;SDS011;6544;51.666;6.634;2023-04-25T00:24:30;15.05;;;6.05;;
12958;SDS011;6544;51.666;6.634;2023-04-25T00:26:57;12.20;;;6.13;;
12958;SDS011;6544;51.666;6.634;2023-04-25T00:29:24;15.80;;;6.15;;
12958;SDS011;6544;51.666;6.634;2023-04-25T00:31:51;13.50;;;5.85;;
12958;SDS011;6544;51.666;6.634;2023-04-25T00:34:19;8.50;;;5.30;;
12958;SDS011;6544;51.666;6.634;2023-04-25T00:36:46;13.85;;;6.13;;
12958;SDS011;6544;51.666;6.634;2023-04-25T00:39:13;11.10;;;5.75;;
12958;SDS011;6544;51.666;6.634;2023-04-25T00:41:39;12.17;;;5.77;;
12958;SDS011;6544;51.666;6.634;2023-04-25T00:44:08;11.40;;;5.72;;
12958;SDS011;6544;51.666;6.634;2023-04-25T00:46:36;11.57;;;5.88;;
12958;SDS011;6544;51.666;6.634;2023-04-25T00:49:04;12.93;;;6.00;;
12958;SDS011;6544;51.666;6.634;2023-04-25T00:51:32;9.00;;;5.78;;
12958;SDS011;6544;51.666;6.634;2023-04-25T00:54:00;11.55;;;5.82;;
12958;SDS011;6544;51.666;6.634;2023-04-25T00:56:27;10.77;;;5.70;;
12958;SDS011;6544;51.666;6.634;2023-04-25T00:58:54;12.60;;;6.60;;
12958;SDS011;6544;51.666;6.634;2023-04-25T01:01:22;15.68;;;6.97;;
12958;SDS011;6544;51.666;6.634;2023-04-25T01:03:49;14.27;;;6.75;;
12958;SDS011;6544;51.666;6.634;2023-04-25T01:06:17;13.52;;;6.07;;
12958;SDS011;6544;51.666;6.634;2023-04-25T01:08:45;14.77;;;6.73;;
12958;SDS011;6544;51.666;6.634;2023-04-25T01:11:13;13.70;;;6.37;;
12958;SDS011;6544;51.666;6.634;2023-04-25T01:13:40;18.40;;;6.20;;
12958;SDS011;6544;51.666;6.634;2023-04-25T01:16:07;16.63;;;6.90;;
12958;SDS011;6544;51.666;6.634;2023-04-25T01:18:34;15.13;;;7.00;;
12958;SDS011;6544;51.666;6.634;2023-04-25T01:21:04;16.70;;;7.03;;
12958;SDS011;6544;51.666;6.634;2023-04-25T01:23:34;18.63;;;7.40;;
12958;SDS011;6544;51.666;6.634;2023-04-25T01:26:02;17.10;;;6.80;;
12958;SDS011;6544;51.666;6.634;2023-04-25T01:28:29;16.73;;;6.20;;
12958;SDS011;6544;51.666;6.634;2023-04-25T01:30:57;18.57;;;6.70;;
12958;SDS011;6544;51.666;6.634;2023-04-25T01:33:25;15.70;;;6.33;;
12958;SDS011;6544;51.666;6.634;2023-04-25T01:35:52;15.03;;;6.93;;
12958;SDS011;6544;51.666;6.634;2023-04-25T01:38:21;15.13;;;6.50;;
12958;SDS011;6544;51.666;6.634;2023-04-25T01:40:48;17.70;;;6.73;;
12958;SDS011;6544;51.666;6.634;2023-04-25T01:43:16;17.10;;;7.20;;
12958;SDS011;6544;51.666;6.634;2023-04-25T01:45:43;14.50;;;6.47;;
12958;SDS011;6544;51.666;6.634;2023-04-25T01:48:10;13.60;;;6.60;;
12958;SDS011;6544;51.666;6.634;2023-04-25T01:50:38;12.57;;;6.90;;
12958;SDS011;6544;51.666;6.634;2023-04-25T01:53:08;12.67;;;6.93;;
12958;SDS011;6544;51.666;6.634;2023-04-25T01:55:38;16.87;;;6.87;;
12958;SDS011;6544;51.666;6.634;2023-04-25T01:58:05;15.57;;;7.00;;
12958;SDS011;6544;51.666;6.634;2023-04-25T02:00:34;19.47;;;6.93;;
12958;SDS011;6544;51.666;6.634;2023-04-25T02:03:03;13.77;;;6.73;;
12958;SDS011;6544;51.666;6.634;2023-04-25T02:05:33;18.20;;;6.57;;
12958;SDS011;6544;51.666;6.634;2023-04-25T02:08:01;19.40;;;6.70;;
12958;SDS011;6544;51.666;6.634;2023-04-25T02:10:28;14.53;;;6.40;;
12958;SDS011;6544;51.666;6.634;2023-04-25T02:12:57;20.80;;;7.43;;
12958;SDS011;6544;51.666;6.634;2023-04-25T02:15:24;16.60;;;7.07;;
12958;SDS011;6544;51.666;6.634;2023-04-25T02:17:51;16.03;;;6.87;;
12958;SDS011;6544;51.666;6.634;2023-04-25T02:20:18;14.63;;;6.70;;
12958;SDS011;6544;51.666;6.634;2023-04-25T02:22:46;18.57;;;7.40;;
12958;SDS011;6544;51.666;6.634;2023-04-25T02:25:13;22.43;;;7.40;;
12958;SDS011;6544;51.666;6.634;2023-04-25T02:27:41;18.20;;;6.97;;
12958;SDS011;6544;51.666;6.634;2023-04-25T02:30:09;21.90;;;7.33;;
12958;SDS011;6544;51.666;6.634;2023-04-25T02:32:36;14.30;;;7.50;;
12958;SDS011;6544;51.666;6.634;2023-04-25T02:35:04;21.33;;;7.70;;
12958;SDS011;6544;51.666;6.634;2023-04-25T02:37:31;12.50;;;7.27;;
12958;SDS011;6544;51.666;6.634;2023-04-25T02:40:00;17.67;;;7.90;;
12958;SDS011;6544;51.666;6.634;2023-04-25T02:42:28;16.77;;;6.83;;
12958;SDS011;6544;51.666;6.634;2023-04-25T02:44:54;16.63;;;7.13;;
12958;SDS011;6544;51.666;6.634;2023-04-25T02:47:23;17.07;;;7.33;;
12958;SDS011;6544;51.666;6.634;2023-04-25T02:49:50;14.77;;;6.47;;
12958;SDS011;6544;51.666;6.634;2023-04-25T02:52:17;17.53;;;7.60;;
12958;SDS011;6544;51.666;6.634;2023-04-25T02:54:44;19.83;;;7.13;;
12958;SDS011;6544;51.666;6.634;2023-04-25T02:57:10;18.00;;;7.60;;
12958;SDS011;6544;51.666;6.634;2023-04-25T02:59:37;20.07;;;7.10;;
12958;SDS011;6544;51.666;6.634;2023-04-25T03:02:04;19.97;;;6.80;;
12958;SDS011;6544;51.666;6.634;2023-04-25T03:04:32;20.40;;;7.47;;
12958;SDS011;6544;51.666;6.634;2023-04-25T03:06:59;17.93;;;7.30;;
12958;SDS011;6544;51.666;6.634;2023-04-25T03:09:26;22.77;;;7.23;;
12958;SDS011;6544;51.666;6.634;2023-04-25T03:11:53;18.40;;;7.60;;
12958;SDS011;6544;51.666;6.634;2023-04-25T03:14:20;18.07;;;7.70;;
12958;SDS011;6544;51.666;6.634;2023-04-25T03:16:47;19.33;;;7.63;;
12958;SDS011;6544;51.666;6.634;2023-04-25T03:19:14;25.00;;;7.53;;
12958;SDS011;6544;51.666;6.634;2023-04-25T03:21:43;17.25;;;7.20;;
12958;SDS011;6544;51.666;6.634;2023-04-25T03:24:10;17.80;;;6.65;;
12958;SDS011;6544;51.666;6.634;2023-04-25T03:26:37;20.00;;;7.60;;
12958;SDS011;6544;51.666;6.634;2023-04-25T03:29:04;18.92;;;7.70;;
12958;SDS011;6544;51.666;6.634;2023-04-25T03:31:31;19.60;;;7.78;;
12958;SDS011;6544;51.666;6.634;2023-04-25T03:33:58;24.80;;;7.10;;
12958;SDS011;6544;51.666;6.634;2023-04-25T03:36:25;25.70;;;8.00;;
12958;SDS011;6544;51.666;6.634;2023-04-25T03:38:53;18.33;;;7.57;;
12958;SDS011;6544;51.666;6.634;2023-04-25T03:41:20;17.23;;;7.73;;
12958;SDS011;6544;51.666;6.634;2023-04-25T03:43:46;22.42;;;7.78;;
12958;SDS011;6544;51.666;6.634;2023-04-25T03:46:13;22.63;;;8.27;;
12958;SDS011;6544;51.666;6.634;2023-04-25T03:48:40;19.10;;;7.60;;
12958;SDS011;6544;51.666;6.634;2023-04-25T03:51:07;21.38;;;8.02;;
12958;SDS011;6544;51.666;6.634;2023-04-25T03:53:34;18.70;;;7.78;;
12958;SDS011;6544;51.666;6.634;2023-04-25T03:56:02;23.97;;;8.03;;
12958;SDS011;6544;51.666;6.634;2023-04-25T03:58:30;17.80;;;7.97;;
12958;SDS011;6544;51.666;6.634;2023-04-25T04:00:57;16.60;;;6.90;;
12958;SDS011;6544;51.666;6.634;2023-04-25T04:03:24;24.30;;;8.20;;
12958;SDS011;6544;51.666;6.634;2023-04-25T04:05:50;27.03;;;7.67;;
12958;SDS011;6544;51.666;6.634;2023-04-25T04:08:18;17.60;;;7.47;;
12958;SDS011;6544;51.666;6.634;2023-04-25T04:10:45;23.80;;;7.40;;
12958;SDS011;6544;51.666;6.634;2023-04-25T04:13:13;25.03;;;7.87;;
12958;SDS011;6544;51.666;6.634;2023-04-25T04:15:40;22.50;;;7.53;;
12958;SDS011;6544;51.666;6.634;2023-04-25T04:18:06;25.67;;;8.57;;
12958;SDS011;6544;51.666;6.634;2023-04-25T04:20:33;21.07;;;7.57;;
12958;SDS011;6544;51.666;6.634;2023-04-25T04:23:00;18.17;;;7.70;;
12958;SDS011;6544;51.666;6.634;2023-04-25T04:25:27;17.90;;;7.80;;
12958;SDS011;6544;51.666;6.634;2023-04-25T04:27:55;21.07;;;8.13;;
12958;SDS011;6544;51.666;6.634;2023-04-25T04:30:24;20.53;;;7.87;;
12958;SDS011;6544;51.666;6.634;2023-04-25T04:32:54;22.80;;;7.75;;
12958;SDS011;6544;51.666;6.634;2023-04-25T04:35:21;21.85;;;7.82;;
12958;SDS011;6544;51.666;6.634;2023-04-25T04:37:48;18.33;;;7.67;;
12958;SDS011;6544;51.666;6.634;2023-04-25T04:40:15;20.10;;;7.33;;
12958;SDS011;6544;51.666;6.634;2023-04-25T04:42:45;16.10;;;7.13;;
12958;SDS011;6544;51.666;6.634;2023-04-25T04:45:13;18.10;;;7.20;;
12958;SDS011;6544;51.666;6.634;2023-04-25T04:47:43;18.40;;;7.20;;
12958;SDS011;6544;51.666;6.634;2023-04-25T04:50:11;15.07;;;6.80;;
12958;SDS011;6544;51.666;6.634;2023-04-25T04:52:40;17.13;;;7.03;;
12958;SDS011;6544;51.666;6.634;2023-04-25T04:55:07;24.73;;;6.80;;
12958;SDS011;6544;51.666;6.634;2023-04-25T04:57:34;30.57;;;7.90;;
12958;SDS011;6544;51.666;6.634;2023-04-25T05:00:02;21.07;;;7.43;;
12958;SDS011;6544;51.666;6.634;2023-04-25T05:02:31;26.83;;;7.60;;
12958;SDS011;6544;51.666;6.634;2023-04-25T05:05:00;21.03;;;8.00;;
12958;SDS011;6544;51.666;6.634;2023-04-25T05:07:27;18.80;;;7.57;;
12958;SDS011;6544;51.666;6.634;2023-04-25T05:09:53;19.63;;;6.93;;
12958;SDS011;6544;51.666;6.634;2023-04-25T05:12:20;22.53;;;7.30;;
12958;SDS011;6544;51.666;6.634;2023-04-25T05:14:47;21.90;;;7.40;;
12958;SDS011;6544;51.666;6.634;2023-04-25T05:17:14;22.47;;;7.33;;
12958;SDS011;6544;51.666;6.634;2023-04-25T05:19:41;18.47;;;6.93;;
12958;SDS011;6544;51.666;6.634;2023-04-25T05:22:09;26.00;;;8.43;;
12958;SDS011;6544;51.666;6.634;2023-04-25T05:24:36;26.43;;;8.00;;
12958;SDS011;6544;51.666;6.634;2023-04-25T05:27:03;14.57;;;6.43;;
12958;SDS011;6544;51.666;6.634;2023-04-25T05:29:36;21.77;;;6.53;;
12958;SDS011;6544;51.666;6.634;2023-04-25T05:32:09;20.83;;;7.50;;
12958;SDS011;6544;51.666;6.634;2023-04-25T05:34:36;16.97;;;7.10;;
12958;SDS011;6544;51.666;6.634;2023-04-25T05:37:03;19.23;;;6.63;;
12958;SDS011;6544;51.666;6.634;2023-04-25T05:39:31;17.77;;;6.73;;
12958;SDS011;6544;51.666;6.634;2023-04-25T05:41:58;18.00;;;6.70;;
12958;SDS011;6544;51.666;6.634;2023-04-25T05:44:32;17.00;;;6.53;;
12958;SDS011;6544;51.666;6.634;2023-04-25T05:46:58;19.87;;;6.83;;
12958;SDS011;6544;51.666;6.634;2023-04-25T05:49:25;22.23;;;6.57;;
12958;SDS011;6544;51.666;6.634;2023-04-25T05:51:52;20.97;;;6.57;;
12958;SDS011;6544;51.666;6.634;2023-04-25T05:54:19;19.70;;;6.53;;
12958;SDS011;6544;51.666;6.634;2023-04-25T05:56:47;14.53;;;6.27;;
12958;SDS011;6544;51.666;6.634;2023-04-25T05:59:17;23.40;;;6.70;;
12958;SDS011;6544;51.666;6.634;2023-04-25T06:01:45;18.40;;;6.27;;
12958;SDS011;6544;51.666;6.634;2023-04-25T06:04:12;18.17;;;6.40;;
12958;SDS011;6544;51.666;6.634;2023-04-25T06:06:39;16.77;;;6.10;;
12958;SDS011;6544;51.666;6.634;2023-04-25T06:09:06;27.63;;;7.87;;
12958;SDS011;6544;51.666;6.634;2023-04-25T06:11:33;18.30;;;6.87;;
12958;SDS011;6544;51.666;6.634;2023-04-25T06:14:03;19.37;;;6.03;;
12958;SDS011;6544;51.666;6.634;2023-04-25T06:16:30;19.80;;;6.20;;
12958;SDS011;6544;51.666;6.634;2023-04-25T06:18:57;14.37;;;5.70;;
12958;SDS011;6544;51.666;6.634;2023-04-25T06:21:24;17.37;;;6.00;;
12958;SDS011;6544;51.666;6.634;2023-04-25T06:23:52;12.53;;;6.07;;
12958;SDS011;6544;51.666;6.634;2023-04-25T06:26:19;16.43;;;6.10;;
12958;SDS011;6544;51.666;6.634;2023-04-25T06:28:46;18.20;;;6.93;;
12958;SDS011;6544;51.666;6.634;2023-04-25T06:31:14;19.03;;;6.03;;
12958;SDS011;6544;51.666;6.634;2023-04-25T06:33:41;23.27;;;7.23;;
12958;SDS011;6544;51.666;6.634;2023-04-25T06:36:08;21.77;;;6.10;;
12958;SDS011;6544;51.666;6.634;2023-04-25T06:38:34;21.80;;;6.33;;
12958;SDS011;6544;51.666;6.634;2023-04-25T06:41:01;14.33;;;5.90;;
12958;SDS011;6544;51.666;6.634;2023-04-25T06:43:28;17.90;;;6.13;;
12958;SDS011;6544;51.666;6.634;2023-04-25T06:45:58;17.93;;;5.43;;
12958;SDS011;6544;51.666;6.634;2023-04-25T06:48:26;17.13;;;5.87;;
12958;SDS011;6544;51.666;6.634;2023-04-25T06:50:53;17.37;;;5.00;;
12958;SDS011;6544;51.666;6.634;2023-04-25T06:53:21;15.23;;;5.10;;
12958;SDS011;6544;51.666;6.634;2023-04-25T06:55:48;15.73;;;5.43;;
12958;SDS011;6544;51.666;6.634;2023-04-25T06:58:15;14.13;;;5.00;;
12958;SDS011;6544;51.666;6.634;2023-04-25T07:00:42;16.73;;;4.67;;
12958;SDS011;6544;51.666;6.634;2023-04-25T07:03:09;14.20;;;4.43;;
12958;SDS011;6544;51.666;6.634;2023-04-25T07:05:37;19.80;;;4.80;;
12958;SDS011;6544;51.666;6.634;2023-04-25T07:08:04;19.03;;;4.77;;
12958;SDS011;6544;51.666;6.634;2023-04-25T07:10:31;15.93;;;4.27;;
12958;SDS011;6544;51.666;6.634;2023-04-25T07:12:58;15.53;;;4.13;;
12958;SDS011;6544;51.666;6.634;2023-04-25T07:15:25;11.57;;;4.10;;
12958;SDS011;6544;51.666;6.634;2023-04-25T07:17:52;13.23;;;4.37;;
12958;SDS011;6544;51.666;6.634;2023-04-25T07:20:19;16.83;;;4.10;;
12958;SDS011;6544;51.666;6.634;2023-04-25T07:22:47;15.80;;;3.77;;
12958;SDS011;6544;51.666;6.634;2023-04-25T07:25:15;16.17;;;4.23;;
12958;SDS011;6544;51.666;6.634;2023-04-25T07:27:42;16.73;;;3.67;;
12958;SDS011;6544;51.666;6.634;2023-04-25T07:30:09;11.33;;;4.03;;
12958;SDS011;6544;51.666;6.634;2023-04-25T07:32:37;12.57;;;4.00;;
12958;SDS011;6544;51.666;6.634;2023-04-25T07:35:04;12.83;;;3.97;;
12958;SDS011;6544;51.666;6.634;2023-04-25T07:37:33;10.13;;;3.53;;
12958;SDS011;6544;51.666;6.634;2023-04-25T07:40:01;14.53;;;3.90;;
12958;SDS011;6544;51.666;6.634;2023-04-25T07:42:30;14.97;;;4.30;;
12958;SDS011;6544;51.666;6.634;2023-04-25T07:44:57;13.17;;;3.57;;
12958;SDS011;6544;51.666;6.634;2023-04-25T07:47:24;11.03;;;3.60;;
12958;SDS011;6544;51.666;6.634;2023-04-25T07:49:51;12.23;;;4.03;;
12958;SDS011;6544;51.666;6.634;2023-04-25T07:52:18;14.00;;;3.60;;
12958;SDS011;6544;51.666;6.634;2023-04-25T07:54:44;10.47;;;3.37;;
12958;SDS011;6544;51.666;6.634;2023-04-25T07:57:13;17.80;;;4.17;;
12958;SDS011;6544;51.666;6.634;2023-04-25T07:59:42;14.30;;;3.75;;
12958;SDS011;6544;51.666;6.634;2023-04-25T08:02:09;11.40;;;3.60;;
12958;SDS011;6544;51.666;6.634;2023-04-25T08:04:35;12.77;;;3.53;;
12958;SDS011;6544;51.666;6.634;2023-04-25T08:07:02;9.67;;;3.50;;
12958;SDS011;6544;51.666;6.634;2023-04-25T08:09:29;12.87;;;3.10;;
12958;SDS011;6544;51.666;6.634;2023-04-25T08:11:59;10.88;;;3.70;;
12958;SDS011;6544;51.666;6.634;2023-04-25T08:14:28;11.48;;;3.17;;
12958;SDS011;6544;51.666;6.634;2023-04-25T08:17:00;12.55;;;3.13;;
12958;SDS011;6544;51.666;6.634;2023-04-25T08:19:28;12.30;;;3.20;;
12958;SDS011;6544;51.666;6.634;2023-04-25T08:21:55;15.32;;;3.67;;
12958;SDS011;6544;51.666;6.634;2023-04-25T08:24:22;14.95;;;3.35;;
12958;SDS011;6544;51.666;6.634;2023-04-25T08:26:49;14.30;;;3.33;;
12958;SDS011;6544;51.666;6.634;2023-04-25T08:29:16;17.55;;;3.03;;
12958;SDS011;6544;51.666;6.634;2023-04-25T08:31:44;10.68;;;2.92;;
12958;SDS011;6544;51.666;6.634;2023-04-25T08:34:11;8.13;;;2.85;;
12958;SDS011;6544;51.666;6.634;2023-04-25T08:36:38;8.43;;;2.70;;
12958;SDS011;6544;51.666;6.634;2023-04-25T08:39:05;11.50;;;2.83;;
12958;SDS011;6544;51.666;6.634;2023-04-25T08:41:32;13.02;;;3.00;;
12958;SDS011;6544;51.666;6.634;2023-04-25T08:43:59;10.45;;;3.28;;
12958;SDS011;6544;51.666;6.634;2023-04-25T08:46:29;12.63;;;2.97;;
12958;SDS011;6544;51.666;6.634;2023-04-25T08:49:00;8.82;;;2.55;;
12958;SDS011;6544;51.666;6.634;2023-04-25T08:51:28;9.88;;;2.65;;
12958;SDS011;6544;51.666;6.634;2023-04-25T08:54:00;9.13;;;2.40;;
12958;SDS011;6544;51.666;6.634;2023-04-25T08:56:34;9.88;;;2.90;;
12958;SDS011;6544;51.666;6.634;2023-04-25T08:59:01;5.35;;;2.03;;
12958;SDS011;6544;51.666;6.634;2023-04-25T09:01:28;6.40;;;2.40;;
12958;SDS011;6544;51.666;6.634;2023-04-25T09:03:56;7.03;;;2.40;;
12958;SDS011;6544;51.666;6.634;2023-04-25T09:06:25;8.70;;;2.35;;
12958;SDS011;6544;51.666;6.634;2023-04-25T09:08:58;12.82;;;2.33;;
12958;SDS011;6544;51.666;6.634;2023-04-25T09:11:29;11.95;;;2.67;;
12958;SDS011;6544;51.666;6.634;2023-04-25T09:14:09;10.13;;;2.90;;
12958;SDS011;6544;51.666;6.634;2023-04-25T09:16:56;9.20;;;2.33;;
12958;SDS011;6544;51.666;6.634;2023-04-25T09:19:27;9.77;;;2.42;;
12958;SDS011;6544;51.666;6.634;2023-04-25T09:21:55;9.20;;;2.47;;
12958;SDS011;6544;51.666;6.634;2023-04-25T09:24:36;8.10;;;2.30;;
12958;SDS011;6544;51.666;6.634;2023-04-25T09:27:04;13.00;;;2.40;;
12958;SDS011;6544;51.666;6.634;2023-04-25T09:29:31;6.57;;;2.40;;
12958;SDS011;6544;51.666;6.634;2023-04-25T09:32:16;9.48;;;2.40;;
12958;SDS011;6544;51.666;6.634;2023-04-25T09:34:45;6.70;;;2.42;;
12958;SDS011;6544;51.666;6.634;2023-04-25T09:37:17;9.27;;;2.28;;
12958;SDS011;6544;51.666;6.634;2023-04-25T09:39:45;9.63;;;2.65;;
12958;SDS011;6544;51.666;6.634;2023-04-25T09:42:13;9.63;;;2.30;;
12958;SDS011;6544;51.666;6.634;2023-04-25T09:44:42;13.35;;;3.38;;
12958;SDS011;6544;51.666;6.634;2023-04-25T09:47:10;9.15;;;2.40;;
12958;SDS011;6544;51.666;6.634;2023-04-25T09:49:39;11.30;;;2.80;;
12958;SDS011;6544;51.666;6.634;2023-04-25T09:52:09;7.13;;;2.40;;
12958;SDS011;6544;51.666;6.634;2023-04-25T09:54:42;7.95;;;2.58;;
12958;SDS011;6544;51.666;6.634;2023-04-25T09:57:10;5.65;;;2.05;;
12958;SDS011;6544;51.666;6.634;2023-04-25T09:59:43;6.83;;;2.17;;
12958;SDS011;6544;51.666;6.634;2023-04-25T10:02:11;3.47;;;2.00;;
12958;SDS011;6544;51.666;6.634;2023-04-25T10:04:40;4.30;;;1.70;;
12958;SDS011;6544;51.666;6.634;2023-04-25T10:07:09;8.53;;;5.07;;
12958;SDS011;6544;51.666;6.634;2023-04-25T10:09:37;5.27;;;2.03;;
12958;SDS011;6544;51.666;6.634;2023-04-25T10:12:06;3.23;;;1.80;;
12958;SDS011;6544;51.666;6.634;2023-04-25T10:14:34;4.90;;;1.90;;
12958;SDS011;6544;51.666;6.634;2023-04-25T10:17:02;5.13;;;1.70;;
12958;SDS011;6544;51.666;6.634;2023-04-25T10:19:29;6.17;;;2.43;;
12958;SDS011;6544;51.666;6.634;2023-04-25T10:22:03;4.80;;;2.10;;
12958;SDS011;6544;51.666;6.634;2023-04-25T10:24:34;3.97;;;2.20;;
12958;SDS011;6544;51.666;6.634;2023-04-25T10:27:03;6.60;;;2.27;;
12958;SDS011;6544;51.666;6.634;2023-04-25T10:29:31;6.63;;;2.00;;
12958;SDS011;6544;51.666;6.634;2023-04-25T10:31:58;6.32;;;2.03;;
12958;SDS011;6544;51.666;6.634;2023-04-25T10:34:37;6.50;;;2.30;;
12958;SDS011;6544;51.666;6.634;2023-04-25T10:37:08;7.33;;;2.50;;
12958;SDS011;6544;51.666;6.634;2023-04-25T10:39:38;6.28;;;2.13;;
12958;SDS011;6544;51.666;6.634;2023-04-25T10:42:06;5.35;;;2.30;;
12958;SDS011;6544;51.666;6.634;2023-04-25T10:44:34;7.93;;;2.20;;
12958;SDS011;6544;51.666;6.634;2023-04-25T10:47:02;7.10;;;2.13;;
12958;SDS011;6544;51.666;6.634;2023-04-25T10:49:33;6.38;;;2.05;;
12958;SDS011;6544;51.666;6.634;2023-04-25T10:52:11;6.28;;;2.45;;
12958;SDS011;6544;51.666;6.634;2023-04-25T10:54:43;5.47;;;2.22;;
12958;SDS011;6544;51.666;6.634;2023-04-25T10:57:29;6.13;;;2.28;;
12958;SDS011;6544;51.666;6.634;2023-04-25T11:00:07;7.55;;;2.40;;
12958;SDS011;6544;51.666;6.634;2023-04-25T11:02:37;6.60;;;2.20;;
12958;SDS011;6544;51.666;6.634;2023-04-25T11:05:08;4.75;;;2.00;;
12958;SDS011;6544;51.666;6.634;2023-04-25T11:07:38;5.18;;;2.00;;
12958;SDS011;6544;51.666;6.634;2023-04-25T11:10:11;7.78;;;2.10;;
12958;SDS011;6544;51.666;6.634;2023-04-25T11:12:38;9.98;;;2.50;;
12958;SDS011;6544;51.666;6.634;2023-04-25T11:15:07;8.57;;;2.63;;
12958;SDS011;6544;51.666;6.634;2023-04-25T11:17:35;10.82;;;2.50;;
12958;SDS011;6544;51.666;6.634;2023-04-25T11:20:02;8.40;;;3.08;;
12958;SDS011;6544;51.666;6.634;2023-04-25T11:22:34;9.48;;;2.50;;
12958;SDS011;6544;51.666;6.634;2023-04-25T11:25:04;10.60;;;2.65;;
12958;SDS011;6544;51.666;6.634;2023-04-25T11:27:33;4.93;;;2.25;;
12958;SDS011;6544;51.666;6.634;2023-04-25T11:30:10;8.23;;;2.10;;
12958;SDS011;6544;51.666;6.634;2023-04-25T11:32:39;8.30;;;2.00;;
12958;SDS011;6544;51.666;6.634;2023-04-25T11:35:07;9.55;;;2.22;;
12958;SDS011;6544;51.666;6.634;2023-04-25T11:37:34;9.80;;;2.60;;
12958;SDS011;6544;51.666;6.634;2023-04-25T11:40:02;8.63;;;2.70;;
12958;SDS011;6544;51.666;6.634;2023-04-25T11:42:32;5.97;;;2.30;;
12958;SDS011;6544;51.666;6.634;2023-04-25T11:44:59;8.40;;;2.38;;
12958;SDS011;6544;51.666;6.634;2023-04-25T11:47:27;5.95;;;1.90;;
12958;SDS011;6544;51.666;6.634;2023-04-25T11:49:55;6.45;;;2.17;;
12958;SDS011;6544;51.666;6.634;2023-04-25T11:52:23;6.68;;;2.15;;
12958;SDS011;6544;51.666;6.634;2023-04-25T11:54:50;5.78;;;2.20;;
12958;SDS011;6544;51.666;6.634;2023-04-25T11:57:18;6.30;;;2.05;;
12958;SDS011;6544;51.666;6.634;2023-04-25T11:59:47;6.30;;;2.00;;
12958;SDS011;6544;51.666;6.634;2023-04-25T12:02:23;5.97;;;2.00;;
12958;SDS011;6544;51.666;6.634;2023-04-25T12:04:51;5.72;;;1.92;;
12958;SDS011;6544;51.666;6.634;2023-04-25T12:07:18;5.80;;;1.95;;
12958;SDS011;6544;51.666;6.634;2023-04-25T12:09:51;5.65;;;1.83;;
12958;SDS011;6544;51.666;6.634;2023-04-25T12:12:18;5.40;;;2.00;;
12958;SDS011;6544;51.666;6.634;2023-04-25T12:14:48;8.00;;;2.30;;
12958;SDS011;6544;51.666;6.634;2023-04-25T12:17:16;6.45;;;1.90;;
12958;SDS011;6544;51.666;6.634;2023-04-25T12:19:43;8.00;;;2.35;;
12958;SDS011;6544;51.666;6.634;2023-04-25T12:22:19;7.45;;;2.38;;
12958;SDS011;6544;51.666;6.634;2023-04-25T12:24:47;8.38;;;2.25;;
12958;SDS011;6544;51.666;6.634;2023-04-25T12:27:14;6.60;;;2.30;;
12958;SDS011;6544;51.666;6.634;2023-04-25T12:29:52;11.00;;;2.28;;
12958;SDS011;6544;51.666;6.634;2023-04-25T12:32:19;10.02;;;2.50;;
12958;SDS011;6544;51.666;6.634;2023-04-25T12:34:46;6.75;;;2.28;;
12958;SDS011;6544;51.666;6.634;2023-04-25T12:37:13;8.38;;;2.50;;
12958;SDS011;6544;51.666;6.634;2023-04-25T12:39:42;7.05;;;2.50;;
12958;SDS011;6544;51.666;6.634;2023-04-25T12:42:09;9.55;;;2.97;;
12958;SDS011;6544;51.666;6.634;2023-04-25T12:44:37;7.65;;;2.25;;
12958;SDS011;6544;51.666;6.634;2023-04-25T12:47:05;6.72;;;2.25;;
12958;SDS011;6544;51.666;6.634;2023-04-25T12:49:32;7.25;;;2.10;;
12958;SDS011;6544;51.666;6.634;2023-04-25T12:51:59;6.70;;;1.67;;
12958;SDS011;6544;51.666;6.634;2023-04-25T12:54:26;3.78;;;1.60;;
12958;SDS011;6544;51.666;6.634;2023-04-25T12:56:53;4.45;;;1.70;;
12958;SDS011;6544;51.666;6.634;2023-04-25T12:59:20;4.82;;;1.77;;
12958;SDS011;6544;51.666;6.634;2023-04-25T13:01:48;4.55;;;1.77;;
12958;SDS011;6544;51.666;6.634;2023-04-25T13:04:16;5.97;;;1.60;;
12958;SDS011;6544;51.666;6.634;2023-04-25T13:06:45;6.28;;;1.65;;
12958;SDS011;6544;51.666;6.634;2023-04-25T13:09:12;5.25;;;1.70;;
12958;SDS011;6544;51.666;6.634;2023-04-25T13:11:40;3.90;;;1.40;;
12958;SDS011;6544;51.666;6.634;2023-04-25T13:14:07;4.70;;;1.30;;
12958;SDS011;6544;51.666;6.634;2023-04-25T13:16:34;5.75;;;1.60;;
12958;SDS011;6544;51.666;6.634;2023-04-25T13:19:01;5.18;;;1.70;;
12958;SDS011;6544;51.666;6.634;2023-04-25T13:21:30;2.30;;;1.38;;
12958;SDS011;6544;51.666;6.634;2023-04-25T13:23:58;6.68;;;1.67;;
12958;SDS011;6544;51.666;6.634;2023-04-25T13:26:25;4.32;;;1.60;;
12958;SDS011;6544;51.666;6.634;2023-04-25T13:28:52;3.80;;;1.75;;
12958;SDS011;6544;51.666;6.634;2023-04-25T13:31:19;4.35;;;1.40;;
12958;SDS011;6544;51.666;6.634;2023-04-25T13:33:46;3.95;;;1.50;;
12958;SDS011;6544;51.666;6.634;2023-04-25T13:36:19;3.35;;;1.48;;
12958;SDS011;6544;51.666;6.634;2023-04-25T13:38:47;3.92;;;1.58;;
12958;SDS011;6544;51.666;6.634;2023-04-25T13:41:14;3.92;;;1.65;;
12958;SDS011;6544;51.666;6.634;2023-04-25T13:43:44;4.80;;;1.70;;
12958;SDS011;6544;51.666;6.634;2023-04-25T13:46:13;3.35;;;1.50;;
12958;SDS011;6544;51.666;6.634;2023-04-25T13:48:41;3.15;;;1.63;;
12958;SDS011;6544;51.666;6.634;2023-04-25T13:51:12;10.85;;;3.30;;
12958;SDS011;6544;51.666;6.634;2023-04-25T13:53:40;7.63;;;2.20;;
12958;SDS011;6544;51.666;6.634;2023-04-25T13:56:11;10.30;;;3.55;;
12958;SDS011;6544;51.666;6.634;2023-04-25T13:58:40;6.40;;;2.03;;
12958;SDS011;6544;51.666;6.634;2023-04-25T14:01:21;4.22;;;1.95;;
12958;SDS011;6544;51.666;6.634;2023-04-25T14:06:43;6.32;;;2.15;;
12958;SDS011;6544;51.666;6.634;2023-04-25T14:09:11;6.85;;;2.55;;
12958;SDS011;6544;51.666;6.634;2023-04-25T14:24:17;6.75;;;2.30;;
12958;SDS011;6544;51.666;6.634;2023-04-25T14:26:45;6.85;;;2.05;;
12958;SDS011;6544;51.666;6.634;2023-04-25T14:29:16;5.32;;;2.33;;
12958;SDS011;6544;51.666;6.634;2023-04-25T14:31:43;5.15;;;2.15;;
12958;SDS011;6544;51.666;6.634;2023-04-25T14:34:10;5.88;;;1.92;;
12958;SDS011;6544;51.666;6.634;2023-04-25T14:36:37;5.95;;;2.05;;
12958;SDS011;6544;51.666;6.634;2023-04-25T14:39:04;7.70;;;2.40;;
12958;SDS011;6544;51.666;6.634;2023-04-25T14:41:33;5.35;;;1.90;;
12958;SDS011;6544;51.666;6.634;2023-04-25T14:44:00;6.15;;;1.85;;
12958;SDS011;6544;51.666;6.634;2023-04-25T14:46:26;4.97;;;1.92;;
12958;SDS011;6544;51.666;6.634;2023-04-25T14:48:53;4.95;;;1.90;;
12958;SDS011;6544;51.666;6.634;2023-04-25T14:51:21;4.75;;;1.90;;
12958;SDS011;6544;51.666;6.634;2023-04-25T14:53:48;4.07;;;1.65;;
12958;SDS011;6544;51.666;6.634;2023-04-25T14:56:15;5.65;;;1.70;;
12958;SDS011;6544;51.666;6.634;2023-04-25T14:58:43;6.20;;;1.75;;
12958;SDS011;6544;51.666;6.634;2023-04-25T15:01:11;5.95;;;2.08;;
12958;SDS011;6544;51.666;6.634;2023-04-25T15:03:39;5.55;;;1.88;;
12958;SDS011;6544;51.666;6.634;2023-04-25T15:06:06;6.00;;;2.20;;
12958;SDS011;6544;51.666;6.634;2023-04-25T15:08:33;4.18;;;1.60;;
12958;SDS011;6544;51.666;6.634;2023-04-25T15:11:01;4.05;;;1.70;;
12958;SDS011;6544;51.666;6.634;2023-04-25T15:13:28;3.55;;;1.80;;
12958;SDS011;6544;51.666;6.634;2023-04-25T15:15:56;3.50;;;1.80;;